Majesty — D5AD9 — position and weather

sailwx.info

Track history (hours):
 
Tides and Currents Weather Stations Pressure Air Temp Water Temp Dewpoint Dewpoint Depression Visibility Wind Speed Wind Dir Waves Ship Positions

Majesty

Last reported at 2018-Jan-25 00:19 UTC. Time now 2018-Feb-22 12:28 UTC.
Position N 36°02' E 014°60'.
Warning: this ship's position is 28 days out of date.

Length 180 m; draft 8.4 m.

Type: Ship (hazmat cat B). MMSI: 636015357.

Date/timePositionNaut miles runAvg speedWind from/ knotsBaromVisibWave heightAir tempDewpointWater temp
2018-Jan-25 00:19N 36°02' E 014°60'512.0
2018-Jan-24 23:56N 36°04' E 014°54'511.8
2018-Jan-24 23:30N 36°05' E 014°48'612.0
2018-Jan-24 23:00N 36°07' E 014°41'612.1
2018-Jan-24 22:30N 36°09' E 014°34'612.2
2018-Jan-24 22:00N 36°11' E 014°27'612.5
2018-Jan-24 21:30N 36°13' E 014°20'612.0
2018-Jan-24 21:01N 36°16' E 014°13'612.5
2018-Jan-24 20:30N 36°18' E 014°06'612.1
2018-Jan-24 20:00N 36°19' E 013°59'713.2
2018-Jan-24 19:30N 36°21' E 013°50'54712.2
2018-Jan-22 22:42N 36°58' E 002°31'512.9
2018-Jan-22 22:19N 36°57' E 002°24'413.4
2018-Jan-22 21:59N 36°57' E 002°19'1713.7
2018-Jan-22 20:46N 36°57' E 001°58'413.2
2018-Jan-22 20:28N 36°57' E 001°53'613.1
2018-Jan-22 19:59N 36°57' E 001°45'612.8
2018-Jan-22 19:29N 36°55' E 001°38'612.8
2018-Jan-22 19:00N 36°51' E 001°31'612.7
2018-Jan-22 18:30N 36°48' E 001°24'713.5
2018-Jan-22 18:00N 36°47' E 001°16'713.9
2018-Jan-22 17:30N 36°46' E 001°08'713.8
2018-Jan-22 17:00N 36°45' E 000°59'713.4
2018-Jan-22 16:30N 36°44' E 000°51'7913.3
2018-Jan-22 10:35N 36°32' W 000°46'21413.2
2018-Jan-21 18:23N 36°00' W 005°09'616.2
2018-Jan-21 18:00N 35°60' W 005°16'815.7
2018-Jan-21 17:30N 35°58' W 005°26'14912.7
2018-Jan-21 05:47N 36°06' W 008°29'412.8
2018-Jan-21 05:30N 36°07' W 008°34'612.6
2018-Jan-21 05:00N 36°08' W 008°42'912.3
2018-Jan-21 04:17N 36°09' W 008°53'1012.1
2018-Jan-21 03:27N 36°11' W 009°05'512.0
2018-Jan-21 03:00N 36°11' W 009°11'611.9
2018-Jan-21 02:30N 36°12' W 009°19'612.0
2018-Jan-21 02:00N 36°13' W 009°26'611.9
2018-Jan-21 01:29N 36°14' W 009°34'612.1
2018-Jan-21 00:59N 36°14' W 009°41'612.0
2018-Jan-21 00:28N 36°15' W 009°49'612.0
2018-Jan-21 00:00N 36°16' W 009°56'612.1
2018-Jan-20 23:28N 36°17' W 010°03'1211.9
2018-Jan-20 22:26N 36°19' W 010°19'511.9
2018-Jan-20 22:00N 36°20' W 010°25'612.0
2018-Jan-20 21:30N 36°21' W 010°32'612.1
2018-Jan-20 21:01N 36°21' W 010°40'612.2
2018-Jan-20 20:30N 36°22' W 010°47'612.2
2018-Jan-20 20:00N 36°23' W 010°55'611.9
2018-Jan-20 19:31N 36°24' W 011°02'612.0
2018-Jan-20 19:00N 36°25' W 011°09'612.0
2018-Jan-20 18:30N 36°26' W 011°17'611.8
2018-Jan-20 18:00N 36°27' W 011°24'612.1
2018-Jan-20 17:30N 36°27' W 011°31'612.3
2018-Jan-20 17:00N 36°28' W 011°39'612.0
2018-Jan-20 16:30N 36°29' W 011°46'611.9
2018-Jan-20 16:00N 36°30' W 011°54'612.1
2018-Jan-20 15:30N 36°31' W 012°01'612.1
2018-Jan-20 15:00N 36°32' W 012°09'611.7
2018-Jan-20 14:30N 36°33' W 012°16'611.6
2018-Jan-20 13:58N 36°34' W 012°23'1211.7
2018-Jan-20 12:56N 36°35' W 012°38'511.7
2018-Jan-20 12:29N 36°36' W 012°45'611.7
2018-Jan-20 12:00N 36°37' W 012°52'611.9
2018-Jan-20 11:30N 36°37' W 012°59'612.0
2018-Jan-20 11:00N 36°38' W 013°06'1012.0
2018-Jan-20 10:11N 36°40' W 013°19'712.0
2018-Jan-20 09:36N 36°41' W 013°27'112.1
2018-Jan-20 09:30N 36°41' W 013°29'612.0
2018-Jan-20 09:00N 36°42' W 013°36'611.8
2018-Jan-20 08:30N 36°43' W 013°43'611.7
2018-Jan-20 07:59N 36°44' W 013°51'611.6
2018-Jan-20 07:30N 36°44' W 013°58'710.9
2018-Jan-20 06:51N 36°45' W 014°06'9 9.2
2018-Jan-20 05:52N 36°47' W 014°18'512.4
2018-Jan-20 05:30N 36°47' W 014°23'612.1
2018-Jan-20 05:00N 36°48' W 014°31'1612.4
2018-Jan-20 03:43N 36°51' W 014°50'612.4
2018-Jan-20 03:12N 36°51' W 014°58'312.5
2018-Jan-20 02:58N 36°52' W 015°02'712.2
2018-Jan-20 02:25N 36°53' W 015°10'512.1
2018-Jan-20 02:00N 36°53' W 015°16'812.0
2018-Jan-20 01:18N 36°55' W 015°27'511.9
2018-Jan-20 00:53N 36°55' W 015°33'611.9
2018-Jan-20 00:22N 36°56' W 015°41'711.9
2018-Jan-19 23:48N 36°57' W 015°49'312.0
2018-Jan-19 23:30N 36°58' W 015°53'27912.0
2018-Jan-19 00:17N 37°38' W 021°40'1012.3
2018-Jan-18 23:30N 37°39' W 021°52'1712.3
2018-Jan-18 22:07N 37°42' W 022°13'612.2
2018-Jan-18 21:38N 37°42' W 022°21'412.0
2018-Jan-18 21:18N 37°43' W 022°26'412.0
2018-Jan-18 20:58N 37°43' W 022°31'511.9
2018-Jan-18 20:30N 37°44' W 022°38'711.7
2018-Jan-18 19:54N 37°45' W 022°47'511.7
2018-Jan-18 19:30N 37°46' W 022°52'911.7
2018-Jan-18 18:46N 37°47' W 023°03'411.9
2018-Jan-18 18:27N 37°47' W 023°08'612.1
2018-Jan-18 17:56N 37°48' W 023°16'512.2
2018-Jan-18 17:29N 37°49' W 023°23'612.2
2018-Jan-18 17:01N 37°50' W 023°30'612.1
2018-Jan-18 16:30N 37°51' W 023°37'711.7
2018-Jan-18 15:57N 37°52' W 023°46'511.8
2018-Jan-18 15:30N 37°52' W 023°52'611.8
2018-Jan-18 15:00N 37°53' W 023°60'611.8
2018-Jan-18 14:30N 37°54' W 024°07'612.1
2018-Jan-18 14:01N 37°55' W 024°15'612.0
2018-Jan-18 13:30N 37°56' W 024°22'612.1
2018-Jan-18 13:00N 37°57' W 024°30'612.2
2018-Jan-18 12:30N 37°58' W 024°37'612.0
2018-Jan-18 12:00N 37°59' W 024°45'611.9
2018-Jan-18 11:30N 37°59' W 024°52'611.9
2018-Jan-18 11:00N 37°60' W 024°60'611.8
2018-Jan-18 10:30N 37°60' W 025°07'611.9
2018-Jan-18 10:01N 37°60' W 025°15'611.9
2018-Jan-18 09:30N 38°00' W 025°22'612.0
2018-Jan-18 09:01N 38°00' W 025°30'612.2
2018-Jan-18 08:30N 38°00' W 025°38'612.1
2018-Jan-18 08:00N 38°00' W 025°46'612.2
2018-Jan-18 07:30N 38°00' W 025°53'612.3
2018-Jan-18 07:00N 38°00' W 026°01'612.0
2018-Jan-18 06:30N 38°00' W 026°09'611.6
2018-Jan-18 06:01N 38°00' W 026°16'611.6
2018-Jan-18 05:30N 38°01' W 026°23'612.2
2018-Jan-18 05:00N 38°01' W 026°31'612.5
2018-Jan-18 04:30N 38°01' W 026°39'612.4
2018-Jan-18 04:00N 38°02' W 026°47'612.1
2018-Jan-18 03:31N 38°02' W 026°54'611.9
2018-Jan-18 03:00N 38°02' W 027°02'612.3
2018-Jan-18 02:30N 38°02' W 027°10'612.2
2018-Jan-18 02:00N 38°02' W 027°18'612.1
2018-Jan-18 01:30N 38°02' W 027°25'612.3
2018-Jan-18 01:00N 38°03' W 027°33'1212.3
2018-Jan-18 00:00N 38°03' W 027°49'111.8
2018-Jan-17 23:58N 38°03' W 027°49'  
Track history (hours):
 
Tides and Currents Weather Stations Pressure Air Temp Water Temp Dewpoint Dewpoint Depression Visibility Wind Speed Wind Dir Waves Ship Positions

Majesty

Last reported at 2018-Jan-25 00:19 UTC. Time now 2018-Feb-22 12:28 UTC.
Position N 36°02' E 014°60'.
Warning: this ship's position is 28 days out of date.

Length 180 m; draft 8.4 m.

Type: Ship (hazmat cat B). MMSI: 636015357.

Date/timePositionNaut miles runAvg speedWind from/ knotsBaromVisibWave heightAir tempDewpointWater temp
2018-Jan-25 00:19N 36°02' E 014°60'512.0
2018-Jan-24 23:56N 36°04' E 014°54'511.8
2018-Jan-24 23:30N 36°05' E 014°48'612.0
2018-Jan-24 23:00N 36°07' E 014°41'612.1
2018-Jan-24 22:30N 36°09' E 014°34'612.2
2018-Jan-24 22:00N 36°11' E 014°27'612.5
2018-Jan-24 21:30N 36°13' E 014°20'612.0
2018-Jan-24 21:01N 36°16' E 014°13'612.5
2018-Jan-24 20:30N 36°18' E 014°06'612.1
2018-Jan-24 20:00N 36°19' E 013°59'713.2
2018-Jan-24 19:30N 36°21' E 013°50'54712.2
2018-Jan-22 22:42N 36°58' E 002°31'512.9
2018-Jan-22 22:19N 36°57' E 002°24'413.4
2018-Jan-22 21:59N 36°57' E 002°19'1713.7
2018-Jan-22 20:46N 36°57' E 001°58'413.2
2018-Jan-22 20:28N 36°57' E 001°53'613.1
2018-Jan-22 19:59N 36°57' E 001°45'612.8
2018-Jan-22 19:29N 36°55' E 001°38'612.8
2018-Jan-22 19:00N 36°51' E 001°31'612.7
2018-Jan-22 18:30N 36°48' E 001°24'713.5
2018-Jan-22 18:00N 36°47' E 001°16'713.9
2018-Jan-22 17:30N 36°46' E 001°08'713.8
2018-Jan-22 17:00N 36°45' E 000°59'713.4
2018-Jan-22 16:30N 36°44' E 000°51'7913.3
2018-Jan-22 10:35N 36°32' W 000°46'21413.2
2018-Jan-21 18:23N 36°00' W 005°09'616.2
2018-Jan-21 18:00N 35°60' W 005°16'815.7
2018-Jan-21 17:30N 35°58' W 005°26'14912.7
2018-Jan-21 05:47N 36°06' W 008°29'412.8
2018-Jan-21 05:30N 36°07' W 008°34'612.6
2018-Jan-21 05:00N 36°08' W 008°42'912.3
2018-Jan-21 04:17N 36°09' W 008°53'1012.1
2018-Jan-21 03:27N 36°11' W 009°05'512.0
2018-Jan-21 03:00N 36°11' W 009°11'611.9
2018-Jan-21 02:30N 36°12' W 009°19'612.0
2018-Jan-21 02:00N 36°13' W 009°26'611.9
2018-Jan-21 01:29N 36°14' W 009°34'612.1
2018-Jan-21 00:59N 36°14' W 009°41'612.0
2018-Jan-21 00:28N 36°15' W 009°49'612.0
2018-Jan-21 00:00N 36°16' W 009°56'612.1
2018-Jan-20 23:28N 36°17' W 010°03'1211.9
2018-Jan-20 22:26N 36°19' W 010°19'511.9
2018-Jan-20 22:00N 36°20' W 010°25'612.0
2018-Jan-20 21:30N 36°21' W 010°32'612.1
2018-Jan-20 21:01N 36°21' W 010°40'612.2
2018-Jan-20 20:30N 36°22' W 010°47'612.2
2018-Jan-20 20:00N 36°23' W 010°55'611.9
2018-Jan-20 19:31N 36°24' W 011°02'612.0
2018-Jan-20 19:00N 36°25' W 011°09'612.0
2018-Jan-20 18:30N 36°26' W 011°17'611.8
2018-Jan-20 18:00N 36°27' W 011°24'612.1
2018-Jan-20 17:30N 36°27' W 011°31'612.3
2018-Jan-20 17:00N 36°28' W 011°39'612.0
2018-Jan-20 16:30N 36°29' W 011°46'611.9
2018-Jan-20 16:00N 36°30' W 011°54'612.1
2018-Jan-20 15:30N 36°31' W 012°01'612.1
2018-Jan-20 15:00N 36°32' W 012°09'611.7
2018-Jan-20 14:30N 36°33' W 012°16'611.6
2018-Jan-20 13:58N 36°34' W 012°23'1211.7
2018-Jan-20 12:56N 36°35' W 012°38'511.7
2018-Jan-20 12:29N 36°36' W 012°45'611.7
2018-Jan-20 12:00N 36°37' W 012°52'611.9
2018-Jan-20 11:30N 36°37' W 012°59'612.0
2018-Jan-20 11:00N 36°38' W 013°06'1012.0
2018-Jan-20 10:11N 36°40' W 013°19'712.0
2018-Jan-20 09:36N 36°41' W 013°27'112.1
2018-Jan-20 09:30N 36°41' W 013°29'612.0
2018-Jan-20 09:00N 36°42' W 013°36'611.8
2018-Jan-20 08:30N 36°43' W 013°43'611.7
2018-Jan-20 07:59N 36°44' W 013°51'611.6
2018-Jan-20 07:30N 36°44' W 013°58'710.9
2018-Jan-20 06:51N 36°45' W 014°06'9 9.2
2018-Jan-20 05:52N 36°47' W 014°18'512.4
2018-Jan-20 05:30N 36°47' W 014°23'612.1
2018-Jan-20 05:00N 36°48' W 014°31'1612.4
2018-Jan-20 03:43N 36°51' W 014°50'612.4
2018-Jan-20 03:12N 36°51' W 014°58'312.5
2018-Jan-20 02:58N 36°52' W 015°02'712.2
2018-Jan-20 02:25N 36°53' W 015°10'512.1
2018-Jan-20 02:00N 36°53' W 015°16'812.0
2018-Jan-20 01:18N 36°55' W 015°27'511.9
2018-Jan-20 00:53N 36°55' W 015°33'611.9
2018-Jan-20 00:22N 36°56' W 015°41'711.9
2018-Jan-19 23:48N 36°57' W 015°49'312.0
2018-Jan-19 23:30N 36°58' W 015°53'27912.0
2018-Jan-19 00:17N 37°38' W 021°40'1012.3
2018-Jan-18 23:30N 37°39' W 021°52'1712.3
2018-Jan-18 22:07N 37°42' W 022°13'612.2
2018-Jan-18 21:38N 37°42' W 022°21'412.0
2018-Jan-18 21:18N 37°43' W 022°26'412.0
2018-Jan-18 20:58N 37°43' W 022°31'511.9
2018-Jan-18 20:30N 37°44' W 022°38'711.7
2018-Jan-18 19:54N 37°45' W 022°47'511.7
2018-Jan-18 19:30N 37°46' W 022°52'911.7
2018-Jan-18 18:46N 37°47' W 023°03'411.9
2018-Jan-18 18:27N 37°47' W 023°08'612.1
2018-Jan-18 17:56N 37°48' W 023°16'512.2
2018-Jan-18 17:29N 37°49' W 023°23'612.2
2018-Jan-18 17:01N 37°50' W 023°30'612.1
2018-Jan-18 16:30N 37°51' W 023°37'711.7
2018-Jan-18 15:57N 37°52' W 023°46'511.8
2018-Jan-18 15:30N 37°52' W 023°52'611.8
2018-Jan-18 15:00N 37°53' W 023°60'611.8
2018-Jan-18 14:30N 37°54' W 024°07'612.1
2018-Jan-18 14:01N 37°55' W 024°15'612.0
2018-Jan-18 13:30N 37°56' W 024°22'612.1
2018-Jan-18 13:00N 37°57' W 024°30'612.2
2018-Jan-18 12:30N 37°58' W 024°37'612.0
2018-Jan-18 12:00N 37°59' W 024°45'611.9
2018-Jan-18 11:30N 37°59' W 024°52'611.9
2018-Jan-18 11:00N 37°60' W 024°60'611.8
2018-Jan-18 10:30N 37°60' W 025°07'611.9
2018-Jan-18 10:01N 37°60' W 025°15'611.9
2018-Jan-18 09:30N 38°00' W 025°22'612.0
2018-Jan-18 09:01N 38°00' W 025°30'612.2
2018-Jan-18 08:30N 38°00' W 025°38'612.1
2018-Jan-18 08:00N 38°00' W 025°46'612.2
2018-Jan-18 07:30N 38°00' W 025°53'612.3
2018-Jan-18 07:00N 38°00' W 026°01'612.0
2018-Jan-18 06:30N 38°00' W 026°09'611.6
2018-Jan-18 06:01N 38°00' W 026°16'611.6
2018-Jan-18 05:30N 38°01' W 026°23'612.2
2018-Jan-18 05:00N 38°01' W 026°31'612.5
2018-Jan-18 04:30N 38°01' W 026°39'612.4
2018-Jan-18 04:00N 38°02' W 026°47'612.1
2018-Jan-18 03:31N 38°02' W 026°54'611.9
2018-Jan-18 03:00N 38°02' W 027°02'612.3
2018-Jan-18 02:30N 38°02' W 027°10'612.2
2018-Jan-18 02:00N 38°02' W 027°18'612.1
2018-Jan-18 01:30N 38°02' W 027°25'612.3
2018-Jan-18 01:00N 38°03' W 027°33'1212.3
2018-Jan-18 00:00N 38°03' W 027°49'111.8
2018-Jan-17 23:58N 38°03' W 027°49'  

Dump ship's entire track history